createdAt,value
2018-09-19T00:02:03.687Z,82.80
2018-09-19T00:04:32.210Z,83.00
2018-09-19T00:07:00.781Z,83.10
2018-09-19T00:09:29.270Z,82.90
2018-09-19T00:11:57.746Z,82.80
2018-09-19T00:14:26.240Z,83.00
2018-09-19T00:16:54.745Z,83.00
2018-09-19T00:19:23.520Z,83.10
2018-09-19T00:21:52.059Z,84.00
2018-09-19T00:24:21.094Z,83.70
2018-09-19T00:26:49.643Z,83.90
2018-09-19T00:29:18.470Z,84.10
2018-09-19T00:31:46.986Z,84.50
2018-09-19T00:34:15.477Z,84.30
2018-09-19T00:36:43.979Z,84.50
2018-09-19T00:39:12.472Z,84.50
2018-09-19T00:41:40.952Z,84.30
2018-09-19T00:44:09.694Z,84.50
2018-09-19T00:46:38.187Z,84.70
2018-09-19T00:49:06.666Z,84.70
2018-09-19T00:51:35.172Z,85.10
2018-09-19T00:54:03.684Z,85.40
2018-09-19T00:56:32.325Z,85.40
2018-09-19T00:59:00.794Z,85.30
2018-09-19T01:01:29.324Z,85.40
2018-09-19T01:03:58.059Z,85.50
2018-09-19T01:06:26.530Z,85.50
2018-09-19T01:08:55.054Z,85.40
2018-09-19T01:11:23.530Z,86.40
2018-09-19T01:13:52.012Z,85.70
2018-09-19T01:16:20.526Z,86.00
2018-09-19T01:18:49.034Z,86.60
2018-09-19T01:21:17.588Z,86.70
2018-09-19T01:23:46.088Z,86.70
2018-09-19T01:26:14.568Z,86.50
2018-09-19T01:28:43.042Z,86.60
2018-09-19T01:31:11.556Z,86.50
2018-09-19T01:33:40.044Z,86.70
2018-09-19T01:36:08.571Z,87.10
2018-09-19T01:38:37.089Z,86.90
2018-09-19T01:41:05.623Z,86.90
2018-09-19T01:43:34.117Z,87.00
2018-09-19T01:46:03.212Z,86.90
2018-09-19T01:48:31.772Z,87.50
2018-09-19T01:51:00.295Z,87.10
2018-09-19T01:53:28.848Z,87.10
2018-09-19T01:55:57.715Z,87.30
2018-09-19T01:58:26.258Z,87.30
2018-09-19T02:00:54.813Z,87.50
2018-09-19T02:03:23.341Z,87.90
2018-09-19T02:05:51.935Z,87.90
2018-09-19T02:08:20.429Z,88.00
2018-09-19T02:10:48.924Z,88.30
2018-09-19T02:13:17.835Z,87.90
2018-09-19T02:15:46.376Z,87.70
2018-09-19T02:18:14.892Z,87.70
2018-09-19T02:20:43.515Z,87.70
2018-09-19T02:23:11.950Z,88.10
2018-09-19T02:25:40.480Z,88.00
2018-09-19T02:28:09.047Z,87.90
2018-09-19T02:30:37.579Z,88.30
2018-09-19T02:33:06.101Z,88.30
2018-09-19T02:35:34.624Z,88.30
2018-09-19T02:38:03.150Z,88.30
2018-09-19T02:40:31.675Z,88.60
2018-09-19T02:43:00.214Z,88.80
2018-09-19T02:45:28.758Z,89.10
2018-09-19T02:47:57.271Z,89.00
2018-09-19T02:50:25.782Z,89.00
2018-09-19T02:52:56.021Z,89.00
2018-09-19T02:55:25.667Z,88.60
2018-09-19T02:57:54.211Z,89.20
2018-09-19T03:00:22.756Z,89.20
2018-09-19T03:02:51.845Z,89.30
2018-09-19T03:05:20.403Z,89.50
2018-09-19T03:07:48.977Z,89.40
2018-09-19T03:10:17.572Z,89.20
2018-09-19T03:12:46.146Z,89.60
2018-09-19T03:15:14.699Z,89.50
2018-09-19T03:17:43.837Z,89.60
2018-09-19T03:20:12.101Z,89.90
2018-09-19T03:22:40.602Z,90.10
2018-09-19T03:25:09.128Z,90.10
2018-09-19T03:27:37.635Z,90.20
2018-09-19T03:30:06.402Z,90.30
2018-09-19T03:32:34.950Z,90.30
2018-09-19T03:35:03.477Z,90.40
2018-09-19T03:37:31.964Z,90.30
2018-09-19T03:40:00.496Z,90.40
2018-09-19T03:42:28.987Z,90.70
2018-09-19T03:44:57.536Z,90.40
2018-09-19T03:47:26.027Z,90.40
2018-09-19T03:49:54.547Z,90.50
2018-09-19T03:52:23.064Z,90.50
2018-09-19T03:54:51.587Z,90.50
2018-09-19T03:57:20.125Z,90.50
2018-09-19T03:59:48.643Z,90.40
2018-09-19T04:02:17.173Z,90.40
2018-09-19T04:04:45.695Z,90.30
2018-09-19T04:07:14.239Z,90.30
2018-09-19T04:09:43.654Z,90.30
2018-09-19T04:12:12.150Z,90.30
2018-09-19T04:14:40.648Z,90.30
2018-09-19T04:17:09.164Z,90.20
2018-09-19T04:19:37.690Z,90.20
2018-09-19T04:22:06.263Z,90.10
2018-09-19T04:24:34.770Z,90.00
2018-09-19T04:27:03.303Z,90.00
2018-09-19T04:29:31.823Z,90.00
2018-09-19T04:32:00.347Z,90.00
2018-09-19T04:34:29.351Z,90.00
2018-09-19T04:36:57.868Z,90.30
2018-09-19T04:39:26.407Z,90.00
2018-09-19T04:41:55.212Z,90.10
2018-09-19T04:44:23.718Z,90.40
2018-09-19T04:46:52.248Z,90.10
2018-09-19T04:49:20.751Z,90.20
2018-09-19T04:51:49.290Z,90.30
2018-09-19T04:54:17.817Z,90.30
2018-09-19T04:56:46.323Z,90.40
2018-09-19T04:59:14.872Z,90.40
2018-09-19T05:01:43.388Z,90.30
2018-09-19T05:04:11.886Z,90.30
2018-09-19T05:06:40.389Z,90.20
2018-09-19T05:09:09.679Z,90.30
2018-09-19T05:11:38.319Z,90.40
2018-09-19T05:14:07.738Z,90.40
2018-09-19T05:16:36.272Z,90.50
2018-09-19T05:19:04.820Z,90.40
2018-09-19T05:21:33.320Z,90.40
2018-09-19T05:24:01.851Z,90.40
2018-09-19T05:26:30.365Z,90.40
2018-09-19T05:28:58.853Z,90.50
2018-09-19T05:31:27.355Z,90.60
2018-09-19T05:33:55.869Z,90.50
2018-09-19T05:36:24.418Z,90.60
2018-09-19T05:38:52.935Z,90.60
2018-09-19T05:41:21.437Z,90.60
2018-09-19T05:43:49.965Z,90.60
2018-09-19T05:46:18.486Z,90.50
2018-09-19T05:48:47.016Z,90.60
2018-09-19T05:51:15.512Z,90.50
2018-09-19T05:53:44.039Z,90.50
2018-09-19T05:56:12.596Z,90.50
2018-09-19T05:58:41.108Z,90.40
2018-09-19T06:01:09.665Z,90.30
2018-09-19T06:03:38.224Z,90.10
2018-09-19T06:06:06.752Z,90.10
2018-09-19T06:08:35.276Z,90.00
2018-09-19T06:11:03.811Z,89.90
2018-09-19T06:13:32.347Z,89.70
2018-09-19T06:16:00.858Z,89.50
2018-09-19T06:18:29.351Z,88.80
2018-09-19T06:20:57.907Z,88.90
2018-09-19T06:23:26.402Z,88.30
2018-09-19T06:25:54.917Z,88.10
2018-09-19T06:28:23.431Z,88.00
2018-09-19T06:30:51.961Z,87.40
2018-09-19T06:33:20.534Z,86.80
2018-09-19T06:35:48.987Z,86.70
2018-09-19T06:38:17.550Z,86.70
2018-09-19T06:40:46.297Z,86.40
2018-09-19T06:43:14.640Z,85.20
2018-09-19T06:45:43.229Z,82.80
2018-09-19T06:48:11.741Z,81.70
2018-09-19T06:50:40.254Z,82.40
2018-09-19T06:53:08.764Z,81.40
2018-09-19T06:55:37.279Z,80.70
2018-09-19T06:58:06.032Z,78.30
2018-09-19T07:00:34.518Z,78.50
2018-09-19T07:03:03.020Z,77.80
2018-09-19T07:05:31.504Z,76.00
2018-09-19T07:08:00.001Z,76.20
2018-09-19T07:10:28.526Z,74.10
2018-09-19T07:12:57.038Z,73.20
2018-09-19T07:15:25.555Z,72.90
2018-09-19T07:17:54.046Z,72.50
2018-09-19T07:20:22.594Z,73.10
2018-09-19T07:22:51.078Z,73.10
2018-09-19T07:25:19.596Z,72.80
2018-09-19T07:27:48.370Z,73.60
2018-09-19T07:30:16.883Z,72.80
2018-09-19T07:32:45.417Z,72.90
2018-09-19T07:35:14.032Z,71.80
2018-09-19T07:37:42.522Z,70.50
2018-09-19T07:40:11.102Z,70.60
2018-09-19T07:42:39.555Z,70.30
2018-09-19T07:45:08.072Z,70.30
2018-09-19T07:47:36.580Z,70.20
2018-09-19T07:50:05.765Z,69.60
2018-09-19T07:52:34.291Z,68.20
2018-09-19T07:55:02.793Z,66.80
2018-09-19T07:57:31.291Z,66.00
2018-09-19T07:59:59.814Z,65.60
2018-09-19T08:02:28.296Z,66.80
2018-09-19T08:04:57.111Z,64.90
2018-09-19T08:07:25.631Z,66.60
2018-09-19T08:09:54.194Z,67.40
2018-09-19T08:12:23.001Z,66.60
2018-09-19T08:14:51.617Z,67.40
2018-09-19T08:17:20.432Z,68.00
2018-09-19T08:19:48.929Z,68.40
2018-09-19T08:22:17.685Z,68.10
2018-09-19T08:24:46.184Z,68.70
2018-09-19T08:27:14.664Z,67.40
2018-09-19T08:29:43.187Z,68.40
2018-09-19T08:32:11.699Z,65.60
2018-09-19T08:34:40.216Z,63.50
2018-09-19T08:37:08.715Z,63.60
2018-09-19T08:39:37.235Z,63.50
2018-09-19T08:42:05.733Z,61.80
2018-09-19T08:44:34.299Z,62.70
2018-09-19T08:47:02.805Z,61.20
2018-09-19T08:49:31.296Z,61.30
2018-09-19T08:51:59.816Z,61.30
2018-09-19T08:54:28.325Z,62.40
2018-09-19T08:56:56.873Z,60.70
2018-09-19T08:59:25.417Z,60.90
2018-09-19T09:01:53.909Z,60.80
2018-09-19T09:04:22.396Z,62.20
2018-09-19T09:06:50.927Z,61.40
2018-09-19T09:09:19.448Z,61.30
2018-09-19T09:11:47.971Z,61.10
2018-09-19T09:14:16.491Z,60.50
2018-09-19T09:16:45.020Z,59.90
2018-09-19T09:19:13.520Z,60.90
2018-09-19T09:21:42.284Z,59.90
2018-09-19T09:24:10.821Z,60.20
2018-09-19T09:26:39.573Z,59.90
2018-09-19T09:29:08.356Z,60.80
2018-09-19T09:31:36.886Z,61.90
2018-09-19T09:34:05.414Z,61.30
2018-09-19T09:36:33.967Z,59.90
2018-09-19T09:39:02.528Z,59.50
2018-09-19T09:41:31.028Z,59.40
2018-09-19T09:43:59.532Z,58.80
2018-09-19T09:46:28.275Z,58.40
2018-09-19T09:48:56.813Z,58.60
2018-09-19T09:51:25.312Z,59.80
2018-09-19T09:53:53.814Z,59.40
2018-09-19T09:56:22.469Z,59.20
2018-09-19T09:58:50.954Z,59.40
2018-09-19T10:01:19.459Z,59.10
2018-09-19T10:03:47.990Z,59.10
2018-09-19T10:06:16.526Z,58.50
2018-09-19T10:08:45.040Z,58.90
2018-09-19T10:11:13.594Z,58.50
2018-09-19T10:13:42.126Z,57.20
2018-09-19T10:16:10.935Z,57.20
2018-09-19T10:18:39.455Z,57.70
2018-09-19T10:21:07.927Z,56.00
2018-09-19T10:23:36.459Z,56.90
2018-09-19T10:26:05.043Z,55.40
2018-09-19T10:28:33.795Z,56.60
2018-09-19T10:31:02.447Z,55.10
2018-09-19T10:33:30.974Z,54.00
2018-09-19T10:35:59.514Z,54.80
2018-09-19T10:38:28.020Z,55.50
2018-09-19T10:40:56.538Z,55.50
2018-09-19T10:43:25.047Z,54.00
2018-09-19T10:45:53.570Z,52.90
2018-09-19T10:48:22.130Z,53.00
2018-09-19T10:50:50.642Z,52.20
2018-09-19T10:53:19.184Z,52.50
2018-09-19T10:55:47.677Z,52.70
2018-09-19T10:58:16.234Z,53.40
2018-09-19T11:00:45.032Z,53.90
2018-09-19T11:03:13.534Z,54.10
2018-09-19T11:05:42.080Z,54.90
2018-09-19T11:08:10.556Z,54.80
2018-09-19T11:10:39.078Z,54.40
2018-09-19T11:13:07.609Z,55.00
2018-09-19T11:15:36.130Z,53.80
2018-09-19T11:18:04.700Z,52.90
2018-09-19T11:20:33.248Z,52.50
2018-09-19T11:23:01.752Z,52.60
2018-09-19T11:25:30.283Z,52.40
2018-09-19T11:27:58.912Z,53.50
2018-09-19T11:30:27.428Z,53.60
2018-09-19T11:32:55.965Z,53.00
2018-09-19T11:35:24.468Z,51.90
2018-09-19T11:37:52.967Z,51.50
2018-09-19T11:40:21.487Z,51.30
2018-09-19T11:42:50.111Z,51.50
2018-09-19T11:45:18.700Z,51.20
2018-09-19T11:47:47.223Z,51.00
2018-09-19T11:50:15.771Z,50.90
2018-09-19T11:52:44.284Z,51.00
2018-09-19T11:55:12.812Z,50.60
2018-09-19T11:57:41.308Z,50.20
2018-09-19T12:00:09.867Z,49.70
2018-09-19T12:02:38.396Z,49.60
2018-09-19T12:05:07.010Z,48.90
2018-09-19T12:07:35.581Z,48.60
2018-09-19T12:10:04.115Z,49.50
2018-09-19T12:12:32.615Z,48.60
2018-09-19T12:15:01.596Z,48.70
2018-09-19T12:17:30.144Z,49.40
2018-09-19T12:19:58.689Z,49.20
2018-09-19T12:22:27.179Z,49.70
2018-09-19T12:24:55.767Z,49.50
2018-09-19T12:27:24.291Z,50.00
2018-09-19T12:29:52.900Z,49.70
2018-09-19T12:32:21.419Z,48.50
2018-09-19T12:34:49.900Z,47.70
2018-09-19T12:37:18.431Z,47.70
2018-09-19T12:39:46.917Z,47.90
2018-09-19T12:42:15.460Z,47.50
2018-09-19T12:44:43.970Z,47.70
2018-09-19T12:47:12.506Z,47.90
2018-09-19T12:49:41.047Z,47.70
2018-09-19T12:52:09.540Z,47.00
2018-09-19T12:54:38.075Z,46.60
2018-09-19T12:57:06.607Z,46.50
2018-09-19T12:59:35.134Z,47.60
2018-09-19T13:02:03.666Z,46.50
2018-09-19T13:04:32.156Z,46.90
2018-09-19T13:07:00.651Z,45.70
2018-09-19T13:09:29.148Z,46.40
2018-09-19T13:11:57.657Z,46.20
2018-09-19T13:14:26.181Z,46.80
2018-09-19T13:16:54.720Z,46.50
2018-09-19T13:19:23.223Z,45.20
2018-09-19T13:21:51.961Z,45.20
2018-09-19T13:24:20.453Z,46.00
2018-09-19T13:26:48.949Z,45.60
2018-09-19T13:29:17.487Z,45.30
2018-09-19T13:31:45.986Z,46.10
2018-09-19T13:34:14.958Z,46.20
2018-09-19T13:36:43.600Z,46.50
2018-09-19T13:39:13.102Z,46.70
2018-09-19T13:41:41.922Z,46.70
2018-09-19T13:44:10.409Z,45.50
2018-09-19T13:46:38.918Z,46.20
2018-09-19T13:49:14.589Z,45.90
2018-09-19T13:51:43.108Z,46.10
2018-09-19T13:54:11.614Z,45.90
2018-09-19T13:56:40.128Z,45.60
2018-09-19T13:59:08.660Z,45.60
2018-09-19T14:01:37.160Z,45.10
2018-09-19T14:04:05.702Z,45.50
2018-09-19T14:06:34.461Z,46.30
2018-09-19T14:09:03.059Z,45.50
2018-09-19T14:11:31.575Z,45.00
2018-09-19T14:14:00.120Z,44.50
2018-09-19T14:16:28.629Z,45.00
2018-09-19T14:18:57.147Z,45.80
2018-09-19T14:21:25.664Z,44.50
2018-09-19T14:23:54.545Z,44.80
2018-09-19T14:26:23.545Z,45.20
2018-09-19T14:28:52.371Z,45.50
2018-09-19T14:31:21.157Z,45.50
2018-09-19T14:33:49.687Z,45.00
2018-09-19T14:36:18.489Z,45.50
2018-09-19T14:38:47.341Z,46.10
2018-09-19T14:41:15.915Z,45.50
2018-09-19T14:43:44.420Z,46.20
2018-09-19T14:46:12.907Z,45.70
2018-09-19T14:48:41.521Z,45.40
2018-09-19T14:51:09.941Z,45.80
2018-09-19T14:53:38.719Z,46.20
2018-09-19T14:56:07.275Z,45.50
2018-09-19T14:58:35.790Z,45.90
2018-09-19T15:01:04.432Z,46.20
2018-09-19T15:03:32.924Z,46.00
2018-09-19T15:06:01.470Z,45.90
2018-09-19T15:08:29.994Z,45.80
2018-09-19T15:10:58.493Z,47.20
2018-09-19T15:13:27.366Z,46.70
2018-09-19T15:15:55.875Z,46.50
2018-09-19T15:18:24.399Z,46.10
2018-09-19T15:20:52.895Z,45.30
2018-09-19T15:23:21.368Z,45.70
2018-09-19T15:25:49.904Z,45.10
2018-09-19T15:28:18.423Z,45.80
2018-09-19T15:30:46.920Z,45.80
2018-09-19T15:33:15.415Z,44.90
2018-09-19T15:35:43.944Z,46.20
2018-09-19T15:38:12.511Z,46.30
2018-09-19T15:40:41.083Z,46.00
2018-09-19T15:43:09.600Z,46.20
2018-09-19T15:45:38.120Z,47.10
2018-09-19T15:48:06.659Z,45.20
2018-09-19T15:50:35.195Z,46.30
2018-09-19T15:53:03.723Z,47.80
2018-09-19T15:55:32.324Z,46.40
2018-09-19T15:58:00.786Z,47.10
2018-09-19T16:00:29.364Z,47.20
2018-09-19T16:02:57.889Z,49.00
2018-09-19T16:05:26.395Z,48.60
2018-09-19T16:07:54.923Z,49.40
2018-09-19T16:10:23.435Z,49.50
2018-09-19T16:12:51.953Z,49.80
2018-09-19T16:15:20.499Z,49.70
2018-09-19T16:17:48.996Z,50.20
2018-09-19T16:20:17.525Z,50.80
2018-09-19T16:22:46.043Z,51.40
2018-09-19T16:25:14.566Z,51.40
2018-09-19T16:27:43.085Z,52.60
2018-09-19T16:30:11.612Z,53.20
2018-09-19T16:32:40.124Z,54.00
2018-09-19T16:35:08.676Z,54.60
2018-09-19T16:37:37.170Z,55.70
2018-09-19T16:40:05.984Z,56.20
2018-09-19T16:42:34.530Z,55.50
2018-09-19T16:45:03.052Z,56.30
2018-09-19T16:47:31.524Z,56.70
2018-09-19T16:50:00.078Z,57.00
2018-09-19T16:52:28.909Z,57.90
2018-09-19T16:54:57.388Z,58.40
2018-09-19T16:57:25.904Z,58.40
2018-09-19T16:59:54.568Z,58.80
2018-09-19T17:02:23.355Z,59.30
2018-09-19T17:04:51.880Z,60.40
2018-09-19T17:07:20.372Z,60.60
2018-09-19T17:09:48.863Z,61.80
2018-09-19T17:12:17.386Z,62.10
2018-09-19T17:14:45.907Z,62.00
2018-09-19T17:17:14.447Z,62.00
2018-09-19T17:19:42.948Z,62.90
2018-09-19T17:22:11.428Z,63.60
2018-09-19T17:24:39.944Z,63.30
2018-09-19T17:27:08.440Z,62.90
2018-09-19T17:29:36.962Z,64.00
2018-09-19T17:32:05.576Z,64.70
2018-09-19T17:34:34.132Z,64.30
2018-09-19T17:37:02.972Z,64.40
2018-09-19T17:39:31.479Z,63.10
2018-09-19T17:42:00.223Z,62.60
2018-09-19T17:44:29.101Z,61.80
2018-09-19T17:46:57.619Z,62.80
2018-09-19T17:49:26.122Z,63.60
2018-09-19T17:51:54.627Z,64.40
2018-09-19T17:54:23.152Z,64.50
2018-09-19T17:56:51.717Z,64.70
2018-09-19T17:59:20.384Z,65.50
2018-09-19T18:01:48.927Z,65.80
2018-09-19T18:04:17.459Z,66.20
2018-09-19T18:06:46.027Z,66.90
2018-09-19T18:09:14.522Z,66.40
2018-09-19T18:11:43.008Z,67.00
2018-09-19T18:14:11.519Z,66.90
2018-09-19T18:16:40.023Z,65.60
2018-09-19T18:19:08.538Z,66.40
2018-09-19T18:21:37.127Z,66.40
2018-09-19T18:24:05.656Z,66.70
2018-09-19T18:26:34.189Z,66.60
2018-09-19T18:29:02.691Z,66.90
2018-09-19T18:31:31.528Z,67.60
2018-09-19T18:34:00.208Z,67.70
2018-09-19T18:36:28.712Z,67.70
2018-09-19T18:38:57.216Z,67.80
2018-09-19T18:41:25.754Z,67.40
2018-09-19T18:43:54.330Z,67.80
2018-09-19T18:46:22.813Z,68.20
2018-09-19T18:48:51.308Z,67.50
2018-09-19T18:51:19.821Z,68.10
2018-09-19T18:53:48.304Z,67.90
2018-09-19T18:56:16.841Z,68.20
2018-09-19T18:58:45.362Z,68.70
2018-09-19T19:01:13.888Z,68.70
2018-09-19T19:03:42.432Z,69.20
2018-09-19T19:06:10.944Z,69.30
2018-09-19T19:08:39.465Z,69.20
2018-09-19T19:11:08.251Z,69.00
2018-09-19T19:13:36.940Z,69.50
2018-09-19T19:16:05.514Z,69.50
2018-09-19T19:18:34.037Z,69.70
2018-09-19T19:21:02.584Z,69.80
2018-09-19T19:23:31.082Z,70.10
2018-09-19T19:25:59.591Z,70.20
2018-09-19T19:28:28.414Z,70.00
2018-09-19T19:30:56.904Z,70.10
2018-09-19T19:33:25.433Z,70.10
2018-09-19T19:35:53.928Z,70.60
2018-09-19T19:38:22.436Z,70.90
2018-09-19T19:40:50.929Z,71.20
2018-09-19T19:43:19.568Z,71.30
2018-09-19T19:45:48.102Z,71.30
2018-09-19T19:48:16.872Z,71.50
2018-09-19T19:50:45.363Z,71.60
2018-09-19T19:53:13.889Z,72.00
2018-09-19T19:55:42.419Z,72.10
2018-09-19T19:58:10.921Z,72.40
2018-09-19T20:00:39.436Z,72.50
2018-09-19T20:03:07.960Z,72.90
2018-09-19T20:05:37.190Z,72.80
2018-09-19T20:08:06.277Z,72.40
2018-09-19T20:10:34.828Z,72.70
2018-09-19T20:13:03.336Z,73.10
2018-09-19T20:15:31.872Z,73.40
2018-09-19T20:18:00.399Z,73.00
2018-09-19T20:20:28.911Z,73.10
2018-09-19T20:22:57.455Z,72.60
2018-09-19T20:25:26.086Z,72.20
2018-09-19T20:27:54.594Z,72.30
2018-09-19T20:30:23.127Z,72.60
2018-09-19T20:32:51.622Z,72.10
2018-09-19T20:35:20.143Z,72.30
2018-09-19T20:37:48.667Z,72.40
2018-09-19T20:40:17.207Z,72.30
2018-09-19T20:42:45.732Z,72.40
2018-09-19T20:45:14.530Z,72.20
2018-09-19T20:47:43.064Z,72.20
2018-09-19T20:50:11.899Z,72.00
2018-09-19T20:52:40.508Z,71.90
2018-09-19T20:55:09.045Z,71.70
2018-09-19T20:57:37.570Z,72.00
2018-09-19T21:00:06.152Z,71.90
2018-09-19T21:02:34.696Z,72.10
2018-09-19T21:05:03.248Z,71.80
2018-09-19T21:07:31.770Z,72.00
2018-09-19T21:10:00.275Z,72.30
2018-09-19T21:12:28.833Z,72.40
2018-09-19T21:14:57.350Z,72.60
2018-09-19T21:17:26.183Z,72.70
2018-09-19T21:19:54.728Z,72.90
2018-09-19T21:22:23.374Z,72.90
2018-09-19T21:24:51.840Z,73.90
2018-09-19T21:27:20.337Z,73.60
2018-09-19T21:29:48.865Z,73.70
2018-09-19T21:32:17.404Z,73.50
2018-09-19T21:34:45.921Z,74.10
2018-09-19T21:37:14.440Z,74.20
2018-09-19T21:39:42.963Z,74.60
2018-09-19T21:42:11.495Z,74.80
2018-09-19T21:44:40.014Z,74.80
2018-09-19T21:47:08.537Z,74.70
2018-09-19T21:49:37.062Z,74.60
2018-09-19T21:52:05.608Z,75.20
2018-09-19T21:54:34.116Z,75.30
2018-09-19T21:57:02.704Z,75.50
2018-09-19T21:59:31.205Z,75.30
2018-09-19T22:02:00.881Z,75.70
2018-09-19T22:04:29.462Z,76.20
2018-09-19T22:06:57.981Z,76.40
2018-09-19T22:09:26.493Z,76.30
2018-09-19T22:11:55.037Z,76.40
2018-09-19T22:14:23.521Z,76.50
2018-09-19T22:16:52.036Z,76.70
2018-09-19T22:19:20.845Z,76.80
2018-09-19T22:21:49.375Z,77.00
2018-09-19T22:24:17.935Z,77.00
2018-09-19T22:26:46.463Z,77.00
2018-09-19T22:29:14.980Z,77.10
2018-09-19T22:31:43.477Z,77.20
2018-09-19T22:34:12.000Z,77.30
2018-09-19T22:36:40.502Z,77.20
2018-09-19T22:39:09.654Z,77.50
2018-09-19T22:41:38.213Z,77.80
2018-09-19T22:44:06.752Z,77.80
2018-09-19T22:46:35.244Z,77.70
2018-09-19T22:49:03.750Z,78.50
2018-09-19T22:51:32.279Z,77.70
2018-09-19T22:54:00.855Z,77.60
2018-09-19T22:56:29.389Z,77.60
2018-09-19T22:58:58.003Z,77.70
2018-09-19T23:01:26.554Z,77.70
2018-09-19T23:03:55.068Z,77.90
2018-09-19T23:06:23.582Z,78.00
2018-09-19T23:08:52.085Z,78.10
2018-09-19T23:11:20.628Z,78.20
2018-09-19T23:13:49.136Z,78.80
2018-09-19T23:16:17.645Z,77.60
2018-09-19T23:18:46.145Z,78.00
2018-09-19T23:21:15.068Z,78.10
2018-09-19T23:23:43.535Z,78.20
2018-09-19T23:26:12.052Z,78.00
2018-09-19T23:28:40.566Z,78.40
2018-09-19T23:31:09.092Z,78.60
2018-09-19T23:33:37.608Z,78.80
2018-09-19T23:36:06.206Z,78.90
2018-09-19T23:38:34.802Z,79.00
2018-09-19T23:41:03.326Z,78.70
2018-09-19T23:43:31.866Z,79.20
2018-09-19T23:46:00.373Z,79.20
2018-09-19T23:48:28.902Z,79.40
2018-09-19T23:50:57.407Z,79.20
2018-09-19T23:53:25.938Z,79.10
2018-09-19T23:55:54.431Z,79.40
2018-09-19T23:58:22.934Z,79.40
